createdAt,value
2018-08-13T00:09:34.947Z,2
2018-08-13T00:19:38.637Z,2
2018-08-13T00:29:32.956Z,2
2018-08-13T00:39:37.701Z,2
2018-08-13T00:49:40.715Z,2
2018-08-13T00:59:34.074Z,2
2018-08-13T01:09:33.958Z,2
2018-08-13T01:19:32.917Z,2
2018-08-13T01:29:34.026Z,2
2018-08-13T01:39:32.923Z,2
2018-08-13T01:49:37.721Z,2
2018-08-13T01:59:32.914Z,2
2018-08-13T02:09:32.913Z,2
2018-08-13T02:19:36.634Z,2
2018-08-13T02:29:33.944Z,2
2018-08-13T02:39:32.914Z,2
2018-08-13T02:49:32.908Z,2
2018-08-13T02:59:33.027Z,2
2018-08-13T03:09:34.054Z,1
2018-08-13T03:19:32.906Z,2
2018-08-13T03:29:33.024Z,2
2018-08-13T03:39:32.933Z,2
2018-08-13T03:49:34.999Z,2
2018-08-13T03:59:32.934Z,1
2018-08-13T04:09:32.926Z,2
2018-08-13T04:19:32.995Z,2
2018-08-13T04:29:33.011Z,2
2018-08-13T04:39:32.959Z,2
2018-08-13T04:49:32.993Z,2
2018-08-13T04:59:34.160Z,3
2018-08-13T05:09:33.044Z,3
2018-08-13T05:19:33.060Z,2
2018-08-13T05:29:33.080Z,2
2018-08-13T05:39:33.008Z,3
2018-08-13T05:49:33.162Z,2
2018-08-13T05:59:33.060Z,2
2018-08-13T06:09:33.116Z,2
2018-08-13T06:19:34.164Z,2
2018-08-13T06:29:33.077Z,3
2018-08-13T06:39:33.093Z,3
2018-08-13T06:49:33.100Z,3
2018-08-13T06:59:33.169Z,3
2018-08-13T07:09:33.173Z,4
2018-08-13T07:19:33.179Z,4
2018-08-13T07:29:33.211Z,4
2018-08-13T07:39:33.294Z,5
2018-08-13T07:49:34.152Z,4
2018-08-13T07:59:33.100Z,3
2018-08-13T08:09:33.183Z,4
2018-08-13T08:19:33.179Z,3
2018-08-13T08:29:34.246Z,4
2018-08-13T08:39:33.131Z,3
2018-08-13T08:49:33.184Z,3
2018-08-13T08:59:33.174Z,3
2018-08-13T09:09:33.169Z,3
2018-08-13T09:19:33.272Z,3
2018-08-13T09:29:33.187Z,3
2018-08-13T09:39:34.193Z,3
2018-08-13T09:49:33.239Z,3
2018-08-13T09:59:33.093Z,2
2018-08-13T10:09:33.170Z,2
2018-08-13T10:19:33.207Z,2
2018-08-13T10:29:33.160Z,2
2018-08-13T10:39:33.233Z,2
2018-08-13T10:49:33.254Z,1
2018-08-13T10:59:33.221Z,2
2018-08-13T11:09:33.239Z,1
2018-08-13T11:19:33.421Z,1
2018-08-13T11:29:33.917Z,2
2018-08-13T11:39:33.350Z,1
2018-08-13T11:49:33.218Z,2
2018-08-13T11:59:33.283Z,1
2018-08-13T12:09:33.611Z,2
2018-08-13T12:19:33.211Z,2
2018-08-13T12:29:33.213Z,2
2018-08-13T12:39:33.275Z,2
2018-08-13T12:49:33.834Z,2
2018-08-13T12:59:33.899Z,2
2018-08-13T13:09:33.327Z,3
2018-08-13T13:19:34.005Z,2
2018-08-13T13:29:34.199Z,2
2018-08-13T13:39:34.427Z,2
2018-08-13T13:49:33.280Z,2
2018-08-13T13:59:33.307Z,2
2018-08-13T14:09:33.614Z,2
2018-08-13T14:19:33.306Z,1
2018-08-13T14:29:33.301Z,2
2018-08-13T14:39:33.285Z,2
2018-08-13T14:49:33.266Z,2
2018-08-13T14:59:33.304Z,2
2018-08-13T15:09:33.399Z,2
2018-08-13T15:19:33.418Z,3
2018-08-13T15:29:33.268Z,3
2018-08-13T15:39:33.293Z,4
2018-08-13T15:49:33.318Z,4
2018-08-13T15:59:33.427Z,5
2018-08-13T16:09:33.385Z,7
2018-08-13T16:19:33.317Z,5
2018-08-13T16:29:33.250Z,6
2018-08-13T16:39:33.276Z,6
2018-08-13T16:49:33.380Z,6
2018-08-13T16:59:33.372Z,7
2018-08-13T17:09:33.353Z,8
2018-08-13T17:19:33.381Z,10
2018-08-13T17:29:33.359Z,10
2018-08-13T17:39:33.262Z,10
2018-08-13T17:49:33.303Z,12
2018-08-13T17:59:33.461Z,14
2018-08-13T18:09:33.385Z,11
2018-08-13T18:19:33.535Z,15
2018-08-13T18:29:33.542Z,12
2018-08-13T18:39:33.511Z,11
2018-08-13T18:49:33.363Z,10
2018-08-13T18:59:33.542Z,10
2018-08-13T19:09:33.389Z,9
2018-08-13T19:19:33.418Z,9
2018-08-13T19:29:33.454Z,9
2018-08-13T19:39:33.344Z,12
2018-08-13T19:49:33.416Z,10
2018-08-13T19:59:33.305Z,10
2018-08-13T20:09:33.359Z,10
2018-08-13T20:19:33.473Z,11
2018-08-13T20:29:33.345Z,11
2018-08-13T20:39:35.044Z,11
2018-08-13T20:49:36.231Z,12
2018-08-13T20:59:35.561Z,10
2018-08-13T21:09:35.702Z,11
2018-08-13T21:19:35.802Z,10
2018-08-13T21:29:38.022Z,11
2018-08-13T21:39:40.394Z,11
2018-08-13T21:49:34.558Z,11
2018-08-13T21:59:36.801Z,10
2018-08-13T22:09:37.763Z,10
2018-08-13T22:30:26.013Z,10
2018-08-13T22:31:06.787Z,11
2018-08-13T22:41:13.517Z,9
2018-08-13T22:51:07.954Z,9
2018-08-13T23:01:13.486Z,11
2018-08-13T23:11:11.381Z,11
2018-08-13T23:21:12.655Z,11
2018-08-13T23:31:11.108Z,12
2018-08-13T23:41:08.612Z,12
2018-08-13T23:51:16.810Z,13
